Details From CYTS - Timmins
To CYXU - London Intl
Flight Number -
Tags Generated
Created
Modified
Stats Distance 332 nm / 616 km
Max Altitude 0 ft / 0 m
Waypoints 3
Social Downloads 1
Likes 0
Share VATSIM

Download

Looking for another format? Having issues loading an existing format? Contact us
Advertisement - Login to hide

Notes

Generated

Route

CYTS YXU20 CYXU

ID Type Via Altitude Latitude Longitude Leg Dist Tot Dist Heading (true) Name
O CYTS APT - 0 ft / 0 m 48.56972˚ -81.38666˚ - 0 nm - -
YXU20 FIX - 0 ft / 0 m 43.04225˚ -81.16046˚ 332 nm 332 nm 178° / 178° -
O CYXU APT - 0 ft / 0 m 43.03806˚ -81.16389˚ 0 nm 332 nm 211° / 211° -

Altitude Profile

Advertisement - Login to hide

Weather


0- 5 10 15 20 25 30 35+ Temperature / ° C

Clouds and Precipitation
Forecast for 2018-05-23 00:00 UTC. Updated 3 hours ago

Ground ~20,000 ft ~40,000 ft Winds

CYTS

Details ICAO CYTS (YTS)
Name TIMMINS
Region Canada
Timezone America/Toronto (UTC-4.0)
Stats Elevation 967 ft / 295 m (AMSL)
Location 48.570140° -81.375487°
Runways 2
Magnetic Variation 10.479° W

METAR

CYTS 230100Z 02010G18KT 15SM BKN110 BKN240 18/05 A2987 RMK AC5CI2 SLP119 DENSITY ALT 1700FT

Decode

TAF

TAF CYTS 230138Z 2302/2314 02008G18KT P6SM BKN110 BKN240 FM230400 02007KT P6SM FEW110 RMK NXT FCST BY 230800Z

Decode

Departure Runways

ID Width Length Bearing (true) Bearing (mag) Surface Threshold Offset Overrun Length
03 150 ft / 46 m 5,974 ft / 1,821 m 21.05° 31.53° Asphalt 0 ft / 0 m 0 ft / 0 m
10 150 ft / 46 m 4,897 ft / 1,493 m 91.19° 101.67° Asphalt 0 ft / 0 m 0 ft / 0 m
21 150 ft / 46 m 5,974 ft / 1,821 m 201.06° 211.54° Asphalt 0 ft / 0 m 0 ft / 0 m
28 150 ft / 46 m 4,897 ft / 1,493 m 271.20° 281.68° Asphalt 0 ft / 0 m 0 ft / 0 m

CYXU

Details ICAO CYXU (YXU)
Name LONDON
Region Canada
Timezone America/Toronto (UTC-4.0)
Stats Elevation 912 ft / 278 m (AMSL)
Location 43.036346° -81.150661°
Runways 2
Magnetic Variation 9.093° W

METAR

CYXU 230127Z 31008KT 15SM OVC008 12/10 A2997 RMK SC8 SLP153

Decode

TAF

TAF AMD CYXU 230133Z 2301/2324 31007KT P6SM OVC008 TEMPO 2301/2304 OVC012 FM230400 35007KT P6SM BKN015 TEMPO 2304/2306 BKN030 FM230600 36007KT P6SM SCT020 PROB30 2307/2311 1SM BR FM231300 32005KT P6SM FEW060 BECMG 2316/2318 32012KT RMK NXT FCST BY 230600Z

Decode

Destination Runways

ID Width Length Bearing (true) Bearing (mag) Surface Threshold Offset Overrun Length
09 200 ft / 61 m 6,287 ft / 1,916 m 78.99° 88.08° Asphalt 0 ft / 0 m 0 ft / 0 m
15 200 ft / 61 m 8,796 ft / 2,681 m 138.79° 147.88° Asphalt 0 ft / 0 m 0 ft / 0 m
27 200 ft / 61 m 6,287 ft / 1,916 m 259.01° 268.10° Asphalt 0 ft / 0 m 0 ft / 0 m
33 200 ft / 61 m 8,796 ft / 2,681 m 318.81° 327.90° Asphalt 0 ft / 0 m 148 ft / 45 m

Approach Navaids

Runway Type Ident Frequency Range Bearing (true) Bearing (mag) Slope Elevation
15 Localiser IXU 109.50 MHz 18 nm / 33 km 138.88° 147.97° - 906 ft / 276 m (AMSL)
15 Glidescope IXU 109.50 MHz 10 nm / 19 km 138.80° 147.89° 3.00° 906 ft / 276 m (AMSL)